sensor_id;sensor_type;location;lat;lon;timestamp;P1;durP1;ratioP1;P2;durP2;ratioP2
79751;SDS011;69234;47.446;21.636;2023-06-26T00:00:04;11.80;;;11.80;;
79751;SDS011;69234;47.446;21.636;2023-06-26T00:00:36;11.97;;;11.97;;
79751;SDS011;69234;47.446;21.636;2023-06-26T00:01:07;12.30;;;12.30;;
79751;SDS011;69234;47.446;21.636;2023-06-26T00:01:38;12.13;;;12.13;;
79751;SDS011;69234;47.446;21.636;2023-06-26T00:02:10;12.00;;;12.00;;
79751;SDS011;69234;47.446;21.636;2023-06-26T00:02:41;12.30;;;12.30;;
79751;SDS011;69234;47.446;21.636;2023-06-26T00:03:11;11.73;;;11.73;;
79751;SDS011;69234;47.446;21.636;2023-06-26T00:03:45;11.87;;;11.87;;
79751;SDS011;69234;47.446;21.636;2023-06-26T00:04:16;11.93;;;11.93;;
79751;SDS011;69234;47.446;21.636;2023-06-26T00:04:46;11.87;;;11.87;;
79751;SDS011;69234;47.446;21.636;2023-06-26T00:05:17;12.10;;;12.10;;
79751;SDS011;69234;47.446;21.636;2023-06-26T00:05:48;12.13;;;12.13;;
79751;SDS011;69234;47.446;21.636;2023-06-26T00:06:20;12.23;;;12.23;;
79751;SDS011;69234;47.446;21.636;2023-06-26T00:06:54;11.93;;;11.93;;
79751;SDS011;69234;47.446;21.636;2023-06-26T00:07:25;12.53;;;12.53;;
79751;SDS011;69234;47.446;21.636;2023-06-26T00:07:56;12.60;;;12.60;;
79751;SDS011;69234;47.446;21.636;2023-06-26T00:08:30;12.40;;;12.40;;
79751;SDS011;69234;47.446;21.636;2023-06-26T00:09:01;13.50;;;13.50;;
79751;SDS011;69234;47.446;21.636;2023-06-26T00:09:32;13.67;;;13.67;;
79751;SDS011;69234;47.446;21.636;2023-06-26T00:10:03;12.40;;;12.40;;
79751;SDS011;69234;47.446;21.636;2023-06-26T00:10:35;12.00;;;12.00;;
79751;SDS011;69234;47.446;21.636;2023-06-26T00:11:06;12.40;;;12.40;;
79751;SDS011;69234;47.446;21.636;2023-06-26T00:11:37;12.50;;;12.43;;
79751;SDS011;69234;47.446;21.636;2023-06-26T00:12:08;12.03;;;11.93;;
79751;SDS011;69234;47.446;21.636;2023-06-26T00:12:39;13.33;;;13.07;;
79751;SDS011;69234;47.446;21.636;2023-06-26T00:13:09;12.97;;;12.97;;
79751;SDS011;69234;47.446;21.636;2023-06-26T00:13:42;11.90;;;11.80;;
79751;SDS011;69234;47.446;21.636;2023-06-26T00:14:13;12.03;;;12.00;;
79751;SDS011;69234;47.446;21.636;2023-06-26T00:14:44;12.97;;;12.93;;
79751;SDS011;69234;47.446;21.636;2023-06-26T00:15:15;13.13;;;13.13;;
79751;SDS011;69234;47.446;21.636;2023-06-26T00:15:46;12.77;;;12.77;;
79751;SDS011;69234;47.446;21.636;2023-06-26T00:16:17;12.00;;;11.87;;
79751;SDS011;69234;47.446;21.636;2023-06-26T00:16:48;12.60;;;12.27;;
79751;SDS011;69234;47.446;21.636;2023-06-26T00:17:22;13.27;;;12.83;;
79751;SDS011;69234;47.446;21.636;2023-06-26T00:17:53;12.87;;;12.53;;
79751;SDS011;69234;47.446;21.636;2023-06-26T00:18:23;12.93;;;12.67;;
79751;SDS011;69234;47.446;21.636;2023-06-26T00:18:54;12.50;;;12.50;;
79751;SDS011;69234;47.446;21.636;2023-06-26T00:19:25;11.90;;;11.90;;
79751;SDS011;69234;47.446;21.636;2023-06-26T00:19:56;12.33;;;12.30;;
79751;SDS011;69234;47.446;21.636;2023-06-26T00:20:27;12.73;;;12.53;;
79751;SDS011;69234;47.446;21.636;2023-06-26T00:20:58;12.77;;;12.70;;
79751;SDS011;69234;47.446;21.636;2023-06-26T00:21:29;11.97;;;11.97;;
79751;SDS011;69234;47.446;21.636;2023-06-26T00:22:00;11.70;;;11.50;;
79751;SDS011;69234;47.446;21.636;2023-06-26T00:22:31;12.43;;;12.07;;
79751;SDS011;69234;47.446;21.636;2023-06-26T00:23:01;13.20;;;12.83;;
79751;SDS011;69234;47.446;21.636;2023-06-26T00:23:37;12.77;;;12.57;;
79751;SDS011;69234;47.446;21.636;2023-06-26T00:24:08;12.40;;;12.40;;
79751;SDS011;69234;47.446;21.636;2023-06-26T00:24:39;12.07;;;12.07;;
79751;SDS011;69234;47.446;21.636;2023-06-26T00:25:10;12.47;;;12.47;;
79751;SDS011;69234;47.446;21.636;2023-06-26T00:25:41;11.83;;;11.83;;
79751;SDS011;69234;47.446;21.636;2023-06-26T00:26:12;11.43;;;11.43;;
79751;SDS011;69234;47.446;21.636;2023-06-26T00:26:45;11.93;;;11.93;;
79751;SDS011;69234;47.446;21.636;2023-06-26T00:27:17;12.10;;;12.10;;
79751;SDS011;69234;47.446;21.636;2023-06-26T00:27:48;12.43;;;12.43;;
79751;SDS011;69234;47.446;21.636;2023-06-26T00:28:19;12.47;;;12.40;;
79751;SDS011;69234;47.446;21.636;2023-06-26T00:28:50;12.33;;;12.10;;
79751;SDS011;69234;47.446;21.636;2023-06-26T00:29:21;12.07;;;12.03;;
79751;SDS011;69234;47.446;21.636;2023-06-26T00:29:52;12.37;;;12.33;;
79751;SDS011;69234;47.446;21.636;2023-06-26T00:30:23;12.83;;;12.83;;
79751;SDS011;69234;47.446;21.636;2023-06-26T00:30:54;11.47;;;11.47;;
79751;SDS011;69234;47.446;21.636;2023-06-26T00:31:25;11.97;;;11.97;;
79751;SDS011;69234;47.446;21.636;2023-06-26T00:31:56;12.83;;;12.83;;
79751;SDS011;69234;47.446;21.636;2023-06-26T00:32:27;12.60;;;12.60;;
79751;SDS011;69234;47.446;21.636;2023-06-26T00:32:58;11.83;;;11.83;;
79751;SDS011;69234;47.446;21.636;2023-06-26T00:33:29;12.10;;;12.07;;
79751;SDS011;69234;47.446;21.636;2023-06-26T00:34:01;12.00;;;12.00;;
79751;SDS011;69234;47.446;21.636;2023-06-26T00:34:32;11.60;;;11.60;;
79751;SDS011;69234;47.446;21.636;2023-06-26T00:35:03;11.67;;;11.60;;
79751;SDS011;69234;47.446;21.636;2023-06-26T00:35:34;11.23;;;11.23;;
79751;SDS011;69234;47.446;21.636;2023-06-26T00:36:08;11.73;;;11.73;;
79751;SDS011;69234;47.446;21.636;2023-06-26T00:36:38;11.17;;;11.17;;
79751;SDS011;69234;47.446;21.636;2023-06-26T00:37:11;11.67;;;11.67;;
79751;SDS011;69234;47.446;21.636;2023-06-26T00:37:43;12.20;;;12.20;;
79751;SDS011;69234;47.446;21.636;2023-06-26T00:38:14;12.87;;;12.87;;
79751;SDS011;69234;47.446;21.636;2023-06-26T00:38:45;12.10;;;12.10;;
79751;SDS011;69234;47.446;21.636;2023-06-26T00:39:16;11.43;;;11.43;;
79751;SDS011;69234;47.446;21.636;2023-06-26T00:39:46;11.33;;;11.33;;
79751;SDS011;69234;47.446;21.636;2023-06-26T00:40:17;12.53;;;12.53;;
79751;SDS011;69234;47.446;21.636;2023-06-26T00:40:48;11.63;;;11.63;;
79751;SDS011;69234;47.446;21.636;2023-06-26T00:41:19;12.27;;;12.27;;
79751;SDS011;69234;47.446;21.636;2023-06-26T00:41:50;12.40;;;12.40;;
79751;SDS011;69234;47.446;21.636;2023-06-26T00:42:23;11.73;;;11.63;;
79751;SDS011;69234;47.446;21.636;2023-06-26T00:42:54;11.83;;;11.77;;
79751;SDS011;69234;47.446;21.636;2023-06-26T00:43:25;12.20;;;12.20;;
79751;SDS011;69234;47.446;21.636;2023-06-26T00:43:56;11.67;;;11.67;;
79751;SDS011;69234;47.446;21.636;2023-06-26T00:44:27;12.60;;;12.60;;
79751;SDS011;69234;47.446;21.636;2023-06-26T00:44:58;12.03;;;12.03;;
79751;SDS011;69234;47.446;21.636;2023-06-26T00:45:29;12.10;;;12.10;;
79751;SDS011;69234;47.446;21.636;2023-06-26T00:46:00;12.07;;;12.07;;
79751;SDS011;69234;47.446;21.636;2023-06-26T00:46:31;12.30;;;12.30;;
79751;SDS011;69234;47.446;21.636;2023-06-26T00:47:02;12.43;;;12.43;;
79751;SDS011;69234;47.446;21.636;2023-06-26T00:47:34;11.90;;;11.90;;
79751;SDS011;69234;47.446;21.636;2023-06-26T00:48:05;12.37;;;12.33;;
79751;SDS011;69234;47.446;21.636;2023-06-26T00:48:36;12.23;;;12.20;;
79751;SDS011;69234;47.446;21.636;2023-06-26T00:49:08;12.43;;;12.43;;
79751;SDS011;69234;47.446;21.636;2023-06-26T00:49:39;11.67;;;11.67;;
79751;SDS011;69234;47.446;21.636;2023-06-26T00:50:10;11.60;;;11.60;;
79751;SDS011;69234;47.446;21.636;2023-06-26T00:50:41;12.03;;;12.03;;
79751;SDS011;69234;47.446;21.636;2023-06-26T00:51:13;12.00;;;12.00;;
79751;SDS011;69234;47.446;21.636;2023-06-26T00:51:44;11.93;;;11.93;;
79751;SDS011;69234;47.446;21.636;2023-06-26T00:52:15;11.70;;;11.70;;
79751;SDS011;69234;47.446;21.636;2023-06-26T00:52:47;12.27;;;12.27;;
79751;SDS011;69234;47.446;21.636;2023-06-26T00:53:18;13.10;;;12.73;;
79751;SDS011;69234;47.446;21.636;2023-06-26T00:53:49;12.53;;;12.23;;
79751;SDS011;69234;47.446;21.636;2023-06-26T00:54:22;12.07;;;12.03;;
79751;SDS011;69234;47.446;21.636;2023-06-26T00:54:53;12.13;;;12.13;;
79751;SDS011;69234;47.446;21.636;2023-06-26T00:55:24;11.93;;;11.93;;
79751;SDS011;69234;47.446;21.636;2023-06-26T00:55:55;11.97;;;11.97;;
79751;SDS011;69234;47.446;21.636;2023-06-26T00:56:26;12.10;;;12.10;;
79751;SDS011;69234;47.446;21.636;2023-06-26T00:56:58;12.17;;;12.17;;
79751;SDS011;69234;47.446;21.636;2023-06-26T00:57:30;11.27;;;11.27;;
79751;SDS011;69234;47.446;21.636;2023-06-26T00:58:01;12.23;;;12.23;;
79751;SDS011;69234;47.446;21.636;2023-06-26T00:58:33;12.07;;;11.93;;
79751;SDS011;69234;47.446;21.636;2023-06-26T00:59:03;12.33;;;12.10;;
79751;SDS011;69234;47.446;21.636;2023-06-26T00:59:35;12.30;;;12.07;;
79751;SDS011;69234;47.446;21.636;2023-06-26T01:00:06;12.10;;;12.07;;
79751;SDS011;69234;47.446;21.636;2023-06-26T01:00:38;11.80;;;11.80;;
79751;SDS011;69234;47.446;21.636;2023-06-26T01:01:09;11.90;;;11.90;;
79751;SDS011;69234;47.446;21.636;2023-06-26T01:01:46;12.23;;;12.23;;
79751;SDS011;69234;47.446;21.636;2023-06-26T01:02:18;12.17;;;12.17;;
79751;SDS011;69234;47.446;21.636;2023-06-26T01:02:50;12.30;;;12.30;;
79751;SDS011;69234;47.446;21.636;2023-06-26T01:03:24;11.50;;;11.50;;
79751;SDS011;69234;47.446;21.636;2023-06-26T01:03:56;12.23;;;12.23;;
79751;SDS011;69234;47.446;21.636;2023-06-26T01:04:29;12.30;;;12.30;;
79751;SDS011;69234;47.446;21.636;2023-06-26T01:05:02;12.60;;;12.60;;
79751;SDS011;69234;47.446;21.636;2023-06-26T01:05:39;12.07;;;12.07;;
79751;SDS011;69234;47.446;21.636;2023-06-26T01:06:10;12.33;;;12.33;;
79751;SDS011;69234;47.446;21.636;2023-06-26T01:06:47;12.10;;;12.10;;
79751;SDS011;69234;47.446;21.636;2023-06-26T01:07:20;12.23;;;12.23;;
79751;SDS011;69234;47.446;21.636;2023-06-26T01:07:53;12.07;;;12.07;;
79751;SDS011;69234;47.446;21.636;2023-06-26T01:08:25;11.63;;;11.63;;
79751;SDS011;69234;47.446;21.636;2023-06-26T01:08:58;11.23;;;11.23;;
79751;SDS011;69234;47.446;21.636;2023-06-26T01:09:30;11.40;;;11.40;;
79751;SDS011;69234;47.446;21.636;2023-06-26T01:10:07;11.60;;;11.60;;
79751;SDS011;69234;47.446;21.636;2023-06-26T01:10:38;12.10;;;12.10;;
79751;SDS011;69234;47.446;21.636;2023-06-26T01:11:10;12.17;;;12.17;;
79751;SDS011;69234;47.446;21.636;2023-06-26T01:11:41;12.17;;;12.17;;
79751;SDS011;69234;47.446;21.636;2023-06-26T01:12:14;12.53;;;12.53;;
79751;SDS011;69234;47.446;21.636;2023-06-26T01:12:45;12.67;;;12.53;;
79751;SDS011;69234;47.446;21.636;2023-06-26T01:13:16;11.93;;;11.90;;
79751;SDS011;69234;47.446;21.636;2023-06-26T01:13:49;11.60;;;11.60;;
79751;SDS011;69234;47.446;21.636;2023-06-26T01:14:23;12.23;;;12.17;;
79751;SDS011;69234;47.446;21.636;2023-06-26T01:14:54;11.83;;;11.83;;
79751;SDS011;69234;47.446;21.636;2023-06-26T01:15:25;12.13;;;12.13;;
79751;SDS011;69234;47.446;21.636;2023-06-26T01:15:57;12.13;;;12.13;;
79751;SDS011;69234;47.446;21.636;2023-06-26T01:16:29;12.03;;;12.03;;
79751;SDS011;69234;47.446;21.636;2023-06-26T01:17:01;12.33;;;12.33;;
79751;SDS011;69234;47.446;21.636;2023-06-26T01:17:34;12.00;;;12.00;;
79751;SDS011;69234;47.446;21.636;2023-06-26T01:18:07;11.87;;;11.87;;
79751;SDS011;69234;47.446;21.636;2023-06-26T01:18:39;11.93;;;11.93;;
79751;SDS011;69234;47.446;21.636;2023-06-26T01:19:26;11.80;;;11.80;;
79751;SDS011;69234;47.446;21.636;2023-06-26T01:20:00;11.83;;;11.83;;
79751;SDS011;69234;47.446;21.636;2023-06-26T01:20:37;11.53;;;11.53;;
79751;SDS011;69234;47.446;21.636;2023-06-26T01:21:12;12.87;;;12.87;;
79751;SDS011;69234;47.446;21.636;2023-06-26T01:21:45;11.83;;;11.83;;
79751;SDS011;69234;47.446;21.636;2023-06-26T01:23:44;12.00;;;12.00;;
79751;SDS011;69234;47.446;21.636;2023-06-26T01:24:21;11.87;;;11.87;;
79751;SDS011;69234;47.446;21.636;2023-06-26T01:25:11;12.17;;;11.90;;
79751;SDS011;69234;47.446;21.636;2023-06-26T01:26:52;12.67;;;12.67;;
79751;SDS011;69234;47.446;21.636;2023-06-26T01:27:24;12.30;;;12.30;;
79751;SDS011;69234;47.446;21.636;2023-06-26T01:27:57;11.60;;;11.60;;
79751;SDS011;69234;47.446;21.636;2023-06-26T01:28:28;11.97;;;11.97;;
79751;SDS011;69234;47.446;21.636;2023-06-26T01:29:01;12.23;;;12.23;;
79751;SDS011;69234;47.446;21.636;2023-06-26T01:29:36;12.13;;;12.13;;
79751;SDS011;69234;47.446;21.636;2023-06-26T01:30:11;12.33;;;12.33;;
79751;SDS011;69234;47.446;21.636;2023-06-26T01:30:44;12.00;;;12.00;;
79751;SDS011;69234;47.446;21.636;2023-06-26T01:31:16;11.87;;;11.87;;
79751;SDS011;69234;47.446;21.636;2023-06-26T01:31:49;12.33;;;12.30;;
79751;SDS011;69234;47.446;21.636;2023-06-26T01:32:21;12.67;;;12.63;;
79751;SDS011;69234;47.446;21.636;2023-06-26T01:32:53;12.53;;;12.50;;
79751;SDS011;69234;47.446;21.636;2023-06-26T01:33:26;13.70;;;13.53;;
79751;SDS011;69234;47.446;21.636;2023-06-26T01:33:58;12.30;;;12.30;;
79751;SDS011;69234;47.446;21.636;2023-06-26T01:34:30;12.03;;;12.03;;
79751;SDS011;69234;47.446;21.636;2023-06-26T01:35:02;12.30;;;12.30;;
79751;SDS011;69234;47.446;21.636;2023-06-26T01:35:36;12.07;;;12.07;;
79751;SDS011;69234;47.446;21.636;2023-06-26T01:36:10;12.60;;;12.57;;
79751;SDS011;69234;47.446;21.636;2023-06-26T01:36:41;11.97;;;11.93;;
79751;SDS011;69234;47.446;21.636;2023-06-26T01:37:12;12.63;;;12.63;;
79751;SDS011;69234;47.446;21.636;2023-06-26T01:37:43;12.80;;;12.80;;
79751;SDS011;69234;47.446;21.636;2023-06-26T01:38:17;12.03;;;12.03;;
79751;SDS011;69234;47.446;21.636;2023-06-26T01:38:50;12.07;;;12.07;;
79751;SDS011;69234;47.446;21.636;2023-06-26T01:39:21;11.47;;;11.40;;
79751;SDS011;69234;47.446;21.636;2023-06-26T01:39:54;12.63;;;12.63;;
79751;SDS011;69234;47.446;21.636;2023-06-26T01:40:25;11.77;;;11.77;;
79751;SDS011;69234;47.446;21.636;2023-06-26T01:40:56;12.73;;;12.73;;
79751;SDS011;69234;47.446;21.636;2023-06-26T01:41:27;12.40;;;12.40;;
79751;SDS011;69234;47.446;21.636;2023-06-26T01:41:58;12.73;;;12.73;;
79751;SDS011;69234;47.446;21.636;2023-06-26T01:42:30;12.50;;;12.50;;
79751;SDS011;69234;47.446;21.636;2023-06-26T01:43:02;12.47;;;12.40;;
79751;SDS011;69234;47.446;21.636;2023-06-26T01:44:36;12.17;;;12.17;;
79751;SDS011;69234;47.446;21.636;2023-06-26T01:45:17;12.83;;;12.83;;
79751;SDS011;69234;47.446;21.636;2023-06-26T01:46:16;12.40;;;12.40;;
79751;SDS011;69234;47.446;21.636;2023-06-26T01:47:05;11.47;;;11.47;;
79751;SDS011;69234;47.446;21.636;2023-06-26T01:47:36;11.77;;;11.77;;
79751;SDS011;69234;47.446;21.636;2023-06-26T01:48:14;12.10;;;12.10;;
79751;SDS011;69234;47.446;21.636;2023-06-26T01:49:52;13.23;;;13.23;;
79751;SDS011;69234;47.446;21.636;2023-06-26T01:50:35;12.20;;;12.20;;
79751;SDS011;69234;47.446;21.636;2023-06-26T01:51:10;12.07;;;12.07;;
79751;SDS011;69234;47.446;21.636;2023-06-26T01:51:47;13.40;;;13.30;;
79751;SDS011;69234;47.446;21.636;2023-06-26T01:52:43;12.60;;;12.60;;
79751;SDS011;69234;47.446;21.636;2023-06-26T01:53:29;13.63;;;13.60;;
79751;SDS011;69234;47.446;21.636;2023-06-26T01:54:09;13.13;;;13.13;;
79751;SDS011;69234;47.446;21.636;2023-06-26T01:55:53;12.57;;;12.57;;
79751;SDS011;69234;47.446;21.636;2023-06-26T01:56:42;13.73;;;13.73;;
79751;SDS011;69234;47.446;21.636;2023-06-26T01:57:19;13.73;;;13.73;;
79751;SDS011;69234;47.446;21.636;2023-06-26T01:57:54;14.27;;;14.27;;
79751;SDS011;69234;47.446;21.636;2023-06-26T01:58:28;13.50;;;13.50;;
79751;SDS011;69234;47.446;21.636;2023-06-26T01:59:02;13.53;;;13.53;;
79751;SDS011;69234;47.446;21.636;2023-06-26T01:59:36;14.37;;;14.37;;
79751;SDS011;69234;47.446;21.636;2023-06-26T02:00:10;13.90;;;13.90;;
79751;SDS011;69234;47.446;21.636;2023-06-26T02:00:44;13.77;;;13.77;;
79751;SDS011;69234;47.446;21.636;2023-06-26T02:01:15;14.13;;;14.13;;
79751;SDS011;69234;47.446;21.636;2023-06-26T02:01:46;14.60;;;14.60;;
79751;SDS011;69234;47.446;21.636;2023-06-26T02:02:17;14.47;;;14.47;;
79751;SDS011;69234;47.446;21.636;2023-06-26T02:02:48;14.17;;;14.17;;
79751;SDS011;69234;47.446;21.636;2023-06-26T02:03:19;13.43;;;13.43;;
79751;SDS011;69234;47.446;21.636;2023-06-26T02:03:50;14.43;;;14.43;;
79751;SDS011;69234;47.446;21.636;2023-06-26T02:04:21;14.50;;;14.50;;
79751;SDS011;69234;47.446;21.636;2023-06-26T02:04:52;15.37;;;15.37;;
79751;SDS011;69234;47.446;21.636;2023-06-26T02:05:23;15.13;;;15.13;;
79751;SDS011;69234;47.446;21.636;2023-06-26T02:05:54;15.13;;;15.10;;
79751;SDS011;69234;47.446;21.636;2023-06-26T02:06:25;15.67;;;15.37;;
79751;SDS011;69234;47.446;21.636;2023-06-26T02:06:56;15.57;;;15.47;;
79751;SDS011;69234;47.446;21.636;2023-06-26T02:07:27;15.97;;;15.57;;
79751;SDS011;69234;47.446;21.636;2023-06-26T02:07:59;15.43;;;15.43;;
79751;SDS011;69234;47.446;21.636;2023-06-26T02:08:34;15.10;;;15.10;;
79751;SDS011;69234;47.446;21.636;2023-06-26T02:09:06;14.73;;;14.60;;
79751;SDS011;69234;47.446;21.636;2023-06-26T02:09:37;15.10;;;15.03;;
79751;SDS011;69234;47.446;21.636;2023-06-26T02:10:09;15.00;;;14.87;;
79751;SDS011;69234;47.446;21.636;2023-06-26T02:10:40;15.43;;;15.03;;
79751;SDS011;69234;47.446;21.636;2023-06-26T02:11:11;15.27;;;14.70;;
79751;SDS011;69234;47.446;21.636;2023-06-26T02:11:44;14.27;;;14.27;;
79751;SDS011;69234;47.446;21.636;2023-06-26T02:12:15;15.03;;;15.03;;
79751;SDS011;69234;47.446;21.636;2023-06-26T02:12:46;15.20;;;15.20;;
79751;SDS011;69234;47.446;21.636;2023-06-26T02:13:18;14.20;;;14.20;;
79751;SDS011;69234;47.446;21.636;2023-06-26T02:13:49;13.70;;;13.70;;
79751;SDS011;69234;47.446;21.636;2023-06-26T02:14:20;14.37;;;14.37;;
79751;SDS011;69234;47.446;21.636;2023-06-26T02:14:51;13.80;;;13.80;;
79751;SDS011;69234;47.446;21.636;2023-06-26T02:15:26;14.10;;;14.10;;
79751;SDS011;69234;47.446;21.636;2023-06-26T02:15:57;14.53;;;14.53;;
79751;SDS011;69234;47.446;21.636;2023-06-26T02:16:29;14.03;;;14.03;;
79751;SDS011;69234;47.446;21.636;2023-06-26T02:17:00;14.30;;;14.30;;
79751;SDS011;69234;47.446;21.636;2023-06-26T02:17:31;13.77;;;13.77;;
79751;SDS011;69234;47.446;21.636;2023-06-26T02:18:02;14.63;;;14.63;;
79751;SDS011;69234;47.446;21.636;2023-06-26T02:18:32;13.90;;;13.90;;
79751;SDS011;69234;47.446;21.636;2023-06-26T02:19:03;14.37;;;14.37;;
79751;SDS011;69234;47.446;21.636;2023-06-26T02:19:34;14.03;;;13.93;;
79751;SDS011;69234;47.446;21.636;2023-06-26T02:20:05;13.73;;;13.73;;
79751;SDS011;69234;47.446;21.636;2023-06-26T02:20:40;14.10;;;14.10;;
79751;SDS011;69234;47.446;21.636;2023-06-26T02:21:11;14.67;;;14.67;;
79751;SDS011;69234;47.446;21.636;2023-06-26T02:21:43;13.70;;;13.63;;
79751;SDS011;69234;47.446;21.636;2023-06-26T02:22:15;14.70;;;14.70;;
79751;SDS011;69234;47.446;21.636;2023-06-26T02:22:46;14.47;;;14.47;;
79751;SDS011;69234;47.446;21.636;2023-06-26T02:23:17;14.13;;;14.13;;
79751;SDS011;69234;47.446;21.636;2023-06-26T02:23:48;14.30;;;14.10;;
79751;SDS011;69234;47.446;21.636;2023-06-26T02:24:19;14.00;;;14.00;;
79751;SDS011;69234;47.446;21.636;2023-06-26T02:24:50;14.17;;;14.17;;
79751;SDS011;69234;47.446;21.636;2023-06-26T02:25:21;13.93;;;13.90;;
79751;SDS011;69234;47.446;21.636;2023-06-26T02:25:52;13.70;;;13.63;;
79751;SDS011;69234;47.446;21.636;2023-06-26T02:26:23;13.27;;;13.20;;
79751;SDS011;69234;47.446;21.636;2023-06-26T02:26:54;14.50;;;14.17;;
79751;SDS011;69234;47.446;21.636;2023-06-26T02:27:27;14.30;;;14.27;;
79751;SDS011;69234;47.446;21.636;2023-06-26T02:27:58;13.63;;;13.63;;
79751;SDS011;69234;47.446;21.636;2023-06-26T02:28:29;13.60;;;13.60;;
79751;SDS011;69234;47.446;21.636;2023-06-26T02:29:01;13.93;;;13.93;;
79751;SDS011;69234;47.446;21.636;2023-06-26T02:29:32;13.57;;;13.57;;
79751;SDS011;69234;47.446;21.636;2023-06-26T02:30:04;14.00;;;14.00;;
79751;SDS011;69234;47.446;21.636;2023-06-26T02:30:37;14.40;;;14.40;;
79751;SDS011;69234;47.446;21.636;2023-06-26T02:31:07;13.80;;;13.80;;
79751;SDS011;69234;47.446;21.636;2023-06-26T02:31:38;14.37;;;14.37;;
79751;SDS011;69234;47.446;21.636;2023-06-26T02:32:09;13.83;;;13.83;;
79751;SDS011;69234;47.446;21.636;2023-06-26T02:32:40;14.57;;;14.57;;
79751;SDS011;69234;47.446;21.636;2023-06-26T02:33:11;13.97;;;13.97;;
79751;SDS011;69234;47.446;21.636;2023-06-26T02:33:43;14.57;;;14.57;;
79751;SDS011;69234;47.446;21.636;2023-06-26T02:34:15;13.90;;;13.90;;
79751;SDS011;69234;47.446;21.636;2023-06-26T02:34:46;14.40;;;14.40;;
79751;SDS011;69234;47.446;21.636;2023-06-26T02:35:17;14.33;;;14.33;;
79751;SDS011;69234;47.446;21.636;2023-06-26T02:35:48;14.47;;;14.47;;
79751;SDS011;69234;47.446;21.636;2023-06-26T02:36:20;13.93;;;13.93;;
79751;SDS011;69234;47.446;21.636;2023-06-26T02:36:51;13.23;;;13.23;;
79751;SDS011;69234;47.446;21.636;2023-06-26T02:37:24;13.27;;;13.27;;
79751;SDS011;69234;47.446;21.636;2023-06-26T02:37:55;13.53;;;13.53;;
79751;SDS011;69234;47.446;21.636;2023-06-26T02:38:27;13.13;;;13.13;;
79751;SDS011;69234;47.446;21.636;2023-06-26T02:38:58;13.43;;;13.43;;
79751;SDS011;69234;47.446;21.636;2023-06-26T02:39:29;14.27;;;14.27;;
79751;SDS011;69234;47.446;21.636;2023-06-26T02:40:00;13.93;;;13.93;;
79751;SDS011;69234;47.446;21.636;2023-06-26T02:40:31;13.93;;;13.93;;
79751;SDS011;69234;47.446;21.636;2023-06-26T02:41:03;14.43;;;14.33;;
79751;SDS011;69234;47.446;21.636;2023-06-26T02:41:34;14.13;;;14.00;;
79751;SDS011;69234;47.446;21.636;2023-06-26T02:42:05;14.63;;;14.27;;
79751;SDS011;69234;47.446;21.636;2023-06-26T02:42:36;13.70;;;13.70;;
79751;SDS011;69234;47.446;21.636;2023-06-26T02:43:07;13.07;;;13.07;;
79751;SDS011;69234;47.446;21.636;2023-06-26T02:43:38;14.23;;;14.23;;
79751;SDS011;69234;47.446;21.636;2023-06-26T02:44:09;13.43;;;13.37;;
79751;SDS011;69234;47.446;21.636;2023-06-26T02:44:41;13.10;;;13.07;;
79751;SDS011;69234;47.446;21.636;2023-06-26T02:45:12;14.10;;;14.07;;
79751;SDS011;69234;47.446;21.636;2023-06-26T02:45:43;13.90;;;13.90;;
79751;SDS011;69234;47.446;21.636;2023-06-26T02:46:14;13.43;;;13.37;;
79751;SDS011;69234;47.446;21.636;2023-06-26T02:46:45;13.57;;;13.53;;
79751;SDS011;69234;47.446;21.636;2023-06-26T02:47:16;12.77;;;12.77;;
79751;SDS011;69234;47.446;21.636;2023-06-26T02:47:48;14.00;;;13.67;;
79751;SDS011;69234;47.446;21.636;2023-06-26T02:48:19;13.17;;;12.90;;
79751;SDS011;69234;47.446;21.636;2023-06-26T02:48:50;13.90;;;13.87;;
79751;SDS011;69234;47.446;21.636;2023-06-26T02:49:22;13.10;;;13.10;;
79751;SDS011;69234;47.446;21.636;2023-06-26T02:49:53;13.13;;;13.10;;
79751;SDS011;69234;47.446;21.636;2023-06-26T02:50:23;13.53;;;13.37;;
79751;SDS011;69234;47.446;21.636;2023-06-26T02:51:09;13.20;;;13.13;;
79751;SDS011;69234;47.446;21.636;2023-06-26T02:51:40;13.73;;;13.73;;
79751;SDS011;69234;47.446;21.636;2023-06-26T02:52:19;14.03;;;13.97;;
79751;SDS011;69234;47.446;21.636;2023-06-26T02:52:50;13.43;;;13.30;;
79751;SDS011;69234;47.446;21.636;2023-06-26T02:53:25;13.37;;;13.33;;
79751;SDS011;69234;47.446;21.636;2023-06-26T02:53:56;14.30;;;14.27;;
79751;SDS011;69234;47.446;21.636;2023-06-26T02:54:27;14.10;;;14.00;;
79751;SDS011;69234;47.446;21.636;2023-06-26T02:55:02;12.93;;;12.93;;
79751;SDS011;69234;47.446;21.636;2023-06-26T02:55:35;14.03;;;14.03;;
79751;SDS011;69234;47.446;21.636;2023-06-26T02:56:06;13.53;;;13.53;;
79751;SDS011;69234;47.446;21.636;2023-06-26T02:56:38;13.93;;;13.93;;
79751;SDS011;69234;47.446;21.636;2023-06-26T02:57:10;13.40;;;13.40;;
79751;SDS011;69234;47.446;21.636;2023-06-26T02:57:40;13.77;;;13.77;;
79751;SDS011;69234;47.446;21.636;2023-06-26T02:58:11;14.40;;;14.40;;
79751;SDS011;69234;47.446;21.636;2023-06-26T02:58:43;14.03;;;14.03;;
79751;SDS011;69234;47.446;21.636;2023-06-26T02:59:14;13.87;;;13.87;;
79751;SDS011;69234;47.446;21.636;2023-06-26T02:59:45;13.37;;;13.37;;
79751;SDS011;69234;47.446;21.636;2023-06-26T03:00:17;13.90;;;13.90;;
79751;SDS011;69234;47.446;21.636;2023-06-26T03:00:52;12.83;;;12.80;;
79751;SDS011;69234;47.446;21.636;2023-06-26T03:01:24;13.57;;;13.53;;
79751;SDS011;69234;47.446;21.636;2023-06-26T03:01:55;13.13;;;13.13;;
79751;SDS011;69234;47.446;21.636;2023-06-26T03:02:33;13.00;;;13.00;;
79751;SDS011;69234;47.446;21.636;2023-06-26T03:03:04;13.63;;;13.63;;
79751;SDS011;69234;47.446;21.636;2023-06-26T03:03:35;13.17;;;13.17;;
79751;SDS011;69234;47.446;21.636;2023-06-26T03:04:10;13.70;;;13.70;;
79751;SDS011;69234;47.446;21.636;2023-06-26T03:04:41;13.03;;;13.03;;
79751;SDS011;69234;47.446;21.636;2023-06-26T03:05:15;12.77;;;12.77;;
79751;SDS011;69234;47.446;21.636;2023-06-26T03:05:47;13.53;;;13.53;;
79751;SDS011;69234;47.446;21.636;2023-06-26T03:06:18;13.50;;;13.50;;
79751;SDS011;69234;47.446;21.636;2023-06-26T03:06:49;14.10;;;14.10;;
79751;SDS011;69234;47.446;21.636;2023-06-26T03:07:20;13.90;;;13.90;;
79751;SDS011;69234;47.446;21.636;2023-06-26T03:07:51;13.60;;;13.60;;
79751;SDS011;69234;47.446;21.636;2023-06-26T03:08:22;13.10;;;13.10;;
79751;SDS011;69234;47.446;21.636;2023-06-26T03:08:53;13.80;;;13.80;;
79751;SDS011;69234;47.446;21.636;2023-06-26T03:09:24;13.40;;;13.37;;
79751;SDS011;69234;47.446;21.636;2023-06-26T03:09:55;13.43;;;13.27;;
79751;SDS011;69234;47.446;21.636;2023-06-26T03:10:26;13.27;;;13.27;;
79751;SDS011;69234;47.446;21.636;2023-06-26T03:10:57;12.80;;;12.80;;
79751;SDS011;69234;47.446;21.636;2023-06-26T03:11:28;13.30;;;13.30;;
79751;SDS011;69234;47.446;21.636;2023-06-26T03:11:59;14.60;;;14.60;;